createdAt,value
2018-04-01T00:01:01.937Z,10.20
2018-04-01T00:03:30.473Z,10.20
2018-04-01T00:05:58.260Z,10.20
2018-04-01T00:08:26.016Z,10.20
2018-04-01T00:10:53.811Z,10.20
2018-04-01T00:13:22.188Z,10.10
2018-04-01T00:15:49.951Z,10.10
2018-04-01T00:18:17.746Z,10.10
2018-04-01T00:20:45.645Z,10.10
2018-04-01T00:23:13.455Z,10.00
2018-04-01T00:25:41.231Z,10.00
2018-04-01T00:28:08.992Z,9.90
2018-04-01T00:30:36.769Z,9.90
2018-04-01T00:33:04.534Z,9.80
2018-04-01T00:35:32.336Z,9.80
2018-04-01T00:38:00.098Z,9.70
2018-04-01T00:40:28.064Z,9.70
2018-04-01T00:42:55.827Z,9.60
2018-04-01T00:45:23.648Z,9.50
2018-04-01T00:47:51.442Z,9.40
2018-04-01T00:50:19.196Z,9.40
2018-04-01T00:52:46.976Z,9.30
2018-04-01T00:55:14.743Z,9.20
2018-04-01T00:57:42.539Z,9.20
2018-04-01T01:00:10.320Z,9.10
2018-04-01T01:02:38.084Z,9.00
2018-04-01T01:05:05.952Z,9.00
2018-04-01T01:07:33.916Z,8.90
2018-04-01T01:10:01.693Z,8.90
2018-04-01T01:12:29.467Z,8.80
2018-04-01T01:14:57.254Z,8.70
2018-04-01T01:17:25.083Z,8.70
2018-04-01T01:19:53.655Z,8.60
2018-04-01T01:22:21.641Z,8.60
2018-04-01T01:24:49.392Z,8.60
2018-04-01T01:27:17.165Z,8.60
2018-04-01T01:29:44.910Z,8.60
2018-04-01T01:32:12.676Z,8.60
2018-04-01T01:34:41.226Z,8.70
2018-04-01T01:37:09.001Z,8.60
2018-04-01T01:39:36.776Z,8.70
2018-04-01T01:42:04.572Z,8.70
2018-04-01T01:44:32.519Z,8.70
2018-04-01T01:47:00.270Z,8.80
2018-04-01T01:49:28.040Z,8.80
2018-04-01T01:51:55.574Z,8.80
2018-04-01T01:54:23.337Z,8.80
2018-04-01T01:56:50.875Z,8.90
2018-04-01T01:59:18.416Z,8.90
2018-04-01T02:01:46.950Z,8.90
2018-04-01T02:04:14.727Z,8.90
2018-04-01T02:06:42.286Z,8.90
2018-04-01T02:09:10.037Z,9.00
2018-04-01T02:11:37.813Z,9.00
2018-04-01T02:14:06.352Z,9.00
2018-04-01T02:16:34.120Z,9.00
2018-04-01T02:19:01.906Z,9.10
2018-04-01T02:21:29.436Z,9.10
2018-04-01T02:23:56.998Z,9.10
2018-04-01T02:26:25.612Z,9.10
2018-04-01T02:28:53.376Z,9.10
2018-04-01T02:31:21.185Z,9.10
2018-04-01T02:33:49.904Z,9.20
2018-04-01T02:36:17.689Z,9.20
2018-04-01T02:38:45.450Z,9.20
2018-04-01T02:41:13.246Z,9.20
2018-04-01T02:43:41.021Z,9.30
2018-04-01T02:46:08.792Z,9.30
2018-04-01T02:48:36.584Z,9.30
2018-04-01T02:51:04.358Z,9.30
2018-04-01T02:53:32.132Z,9.30
2018-04-01T02:56:00.101Z,9.30
2018-04-01T02:58:27.884Z,9.40
2018-04-01T03:00:55.673Z,9.30
2018-04-01T03:03:23.444Z,9.30
2018-04-01T03:05:51.213Z,9.30
2018-04-01T03:08:18.980Z,9.30
2018-04-01T03:10:46.762Z,9.30
2018-04-01T03:13:14.538Z,9.40
2018-04-01T03:15:42.316Z,9.30
2018-04-01T03:18:11.521Z,9.40
2018-04-01T03:20:39.296Z,9.40
2018-04-01T03:23:07.084Z,9.40
2018-04-01T03:25:34.860Z,9.40
2018-04-01T03:28:02.645Z,9.40
2018-04-01T03:30:30.413Z,9.40
2018-04-01T03:32:58.194Z,9.40
2018-04-01T03:35:26.020Z,9.40
2018-04-01T03:37:53.801Z,9.40
2018-04-01T03:40:21.560Z,9.40
2018-04-01T03:42:49.344Z,9.40
2018-04-01T03:45:17.115Z,9.40
2018-04-01T03:47:44.895Z,9.30
2018-04-01T03:50:12.706Z,9.40
2018-04-01T03:52:40.973Z,9.30
2018-04-01T03:55:08.755Z,9.30
2018-04-01T03:57:36.569Z,9.30
2018-04-01T04:00:04.528Z,9.30
2018-04-01T04:02:32.085Z,9.30
2018-04-01T04:04:59.644Z,9.30
2018-04-01T04:07:27.190Z,9.30
2018-04-01T04:09:55.749Z,9.30
2018-04-01T04:12:23.517Z,9.30
2018-04-01T04:14:51.308Z,9.30
2018-04-01T04:17:19.082Z,9.30
2018-04-01T04:19:46.868Z,9.30
2018-04-01T04:22:14.653Z,9.30
2018-04-01T04:24:42.450Z,9.30
2018-04-01T04:27:10.789Z,9.30
2018-04-01T04:29:38.569Z,9.30
2018-04-01T04:32:06.418Z,9.20
2018-04-01T04:34:34.184Z,9.20
2018-04-01T04:37:01.983Z,9.30
2018-04-01T04:39:29.760Z,9.20
2018-04-01T04:41:57.693Z,9.20
2018-04-01T04:44:26.249Z,9.20
2018-04-01T04:46:54.029Z,9.10
2018-04-01T04:49:21.824Z,9.20
2018-04-01T04:51:50.008Z,9.10
2018-04-01T04:54:17.793Z,9.10
2018-04-01T04:56:45.773Z,9.10
2018-04-01T04:59:13.573Z,9.10
2018-04-01T05:01:42.134Z,9.10
2018-04-01T05:04:09.925Z,9.10
2018-04-01T05:06:37.681Z,9.10
2018-04-01T05:09:05.508Z,9.10
2018-04-01T05:11:34.076Z,9.10
2018-04-01T05:14:01.869Z,9.10
2018-04-01T05:16:30.405Z,9.20
2018-04-01T05:18:58.188Z,9.10
2018-04-01T05:21:25.749Z,9.20
2018-04-01T05:23:53.284Z,9.20
2018-04-01T05:26:21.836Z,9.20
2018-04-01T05:28:49.592Z,9.20
2018-04-01T05:31:17.367Z,9.20
2018-04-01T05:33:45.351Z,9.20
2018-04-01T05:36:13.145Z,9.20
2018-04-01T05:38:40.926Z,9.20
2018-04-01T05:41:08.720Z,9.20
2018-04-01T05:43:36.514Z,9.20
2018-04-01T05:46:05.131Z,9.30
2018-04-01T05:48:32.840Z,9.20
2018-04-01T05:51:00.616Z,9.30
2018-04-01T05:53:28.430Z,9.30
2018-04-01T05:55:56.238Z,9.30
2018-04-01T05:58:24.769Z,9.40
2018-04-01T06:00:52.339Z,9.30
2018-04-01T06:03:20.135Z,9.40
2018-04-01T06:05:47.925Z,9.40
2018-04-01T06:08:15.715Z,9.40
2018-04-01T06:10:43.501Z,9.40
2018-04-01T06:13:11.279Z,9.50
2018-04-01T06:15:40.653Z,9.50
2018-04-01T06:18:08.450Z,9.50
2018-04-01T06:20:36.240Z,9.60
2018-04-01T06:23:04.029Z,9.60
2018-04-01T06:25:31.806Z,9.60
2018-04-01T06:28:00.348Z,9.60
2018-04-01T06:30:28.206Z,9.60
2018-04-01T06:32:55.979Z,9.70
2018-04-01T06:35:23.777Z,9.70
2018-04-01T06:37:51.554Z,9.70
2018-04-01T06:40:19.520Z,9.70
2018-04-01T06:42:47.305Z,9.70
2018-04-01T06:45:15.953Z,9.70
2018-04-01T06:47:44.579Z,9.60
2018-04-01T06:50:12.376Z,9.60
2018-04-01T06:52:40.185Z,9.70
2018-04-01T06:55:08.234Z,9.60
2018-04-01T06:57:36.019Z,9.60
2018-04-01T07:00:03.883Z,9.60
2018-04-01T07:02:31.686Z,9.60
2018-04-01T07:04:59.881Z,9.60
2018-04-01T07:07:28.400Z,9.60
2018-04-01T07:09:56.958Z,9.50
2018-04-01T07:12:24.719Z,9.50
2018-04-01T07:14:52.508Z,9.50
2018-04-01T07:17:20.262Z,9.50
2018-04-01T07:19:48.062Z,9.50
2018-04-01T07:22:15.817Z,9.50
2018-04-01T07:24:43.748Z,9.60
2018-04-01T07:27:12.305Z,9.60
2018-04-01T07:29:40.480Z,9.60
2018-04-01T07:32:09.179Z,9.70
2018-04-01T07:34:36.973Z,9.70
2018-04-01T07:37:04.962Z,9.70
2018-04-01T07:39:32.759Z,9.80
2018-04-01T07:42:01.302Z,9.80
2018-04-01T07:44:29.151Z,9.80
2018-04-01T07:46:56.918Z,9.80
2018-04-01T07:49:25.474Z,9.90
2018-04-01T07:51:53.252Z,9.90
2018-04-01T07:54:21.043Z,9.90
2018-04-01T07:56:49.594Z,9.90
2018-04-01T07:59:17.395Z,10.00
2018-04-01T08:01:45.289Z,10.00
2018-04-01T08:04:13.077Z,10.00
2018-04-01T08:06:40.865Z,10.00
2018-04-01T08:09:08.703Z,10.00
2018-04-01T08:11:36.502Z,10.00
2018-04-01T08:14:04.281Z,9.90
2018-04-01T08:16:32.169Z,9.90
2018-04-01T08:19:00.006Z,9.90
2018-04-01T08:21:28.126Z,9.80
2018-04-01T08:23:56.108Z,9.80
2018-04-01T08:26:24.225Z,9.80
2018-04-01T08:28:52.006Z,9.70
2018-04-01T08:31:20.552Z,9.70
2018-04-01T08:33:48.342Z,9.70
2018-04-01T08:36:16.141Z,9.70
2018-04-01T08:38:44.698Z,9.60
2018-04-01T08:41:12.599Z,9.70
2018-04-01T08:43:40.409Z,9.70
2018-04-01T08:46:08.276Z,9.70
2018-04-01T08:48:36.049Z,9.60
2018-04-01T08:51:04.657Z,9.60
2018-04-01T08:53:32.493Z,9.50
2018-04-01T08:56:00.280Z,9.50
2018-04-01T08:58:28.037Z,9.40
2018-04-01T09:00:55.826Z,9.40
2018-04-01T09:03:23.704Z,9.40
2018-04-01T09:05:51.508Z,9.40
2018-04-01T09:08:19.279Z,9.40
2018-04-01T09:10:46.817Z,9.40
2018-04-01T09:13:14.401Z,9.50
2018-04-01T09:15:42.544Z,9.50
2018-04-01T09:18:10.336Z,9.60
2018-04-01T09:20:38.116Z,9.60
2018-04-01T09:23:05.925Z,9.70
2018-04-01T09:25:33.478Z,9.80
2018-04-01T09:28:01.256Z,9.80
2018-04-01T09:30:29.018Z,9.90
2018-04-01T09:32:56.801Z,10.00
2018-04-01T09:35:24.580Z,10.10
2018-04-01T09:37:52.401Z,10.20
2018-04-01T09:40:20.927Z,10.30
2018-04-01T09:42:48.703Z,10.30
2018-04-01T09:45:16.481Z,10.40
2018-04-01T09:47:44.308Z,10.40
2018-04-01T09:50:12.849Z,10.50
2018-04-01T09:52:40.644Z,10.50
2018-04-01T09:55:08.417Z,10.40
2018-04-01T09:57:36.192Z,10.50
2018-04-01T10:00:03.989Z,10.50
2018-04-01T10:02:32.927Z,10.50
2018-04-01T10:05:13.742Z,10.50
2018-04-01T10:07:42.684Z,10.40
2018-04-01T10:10:11.804Z,10.40
2018-04-01T10:12:42.052Z,10.30
2018-04-01T10:15:12.393Z,10.30
2018-04-01T10:17:42.621Z,10.30
2018-04-01T10:20:12.972Z,10.30
2018-04-01T10:22:43.300Z,10.30
2018-04-01T10:25:13.539Z,10.30
2018-04-01T10:27:43.788Z,10.40
2018-04-01T10:30:13.254Z,10.40
2018-04-01T10:32:42.741Z,10.50
2018-04-01T10:35:12.201Z,10.60
2018-04-01T10:37:41.680Z,10.60
2018-04-01T10:40:11.131Z,10.70
2018-04-01T10:42:40.603Z,10.80
2018-04-01T10:45:10.050Z,10.80
2018-04-01T10:47:39.522Z,10.80
2018-04-01T10:50:08.972Z,10.80
2018-04-01T10:52:38.445Z,10.80
2018-04-01T10:55:06.735Z,11.00
2018-04-01T10:57:35.046Z,11.10
2018-04-01T11:00:02.816Z,11.20
2018-04-01T11:02:30.603Z,11.30
2018-04-01T11:04:58.379Z,11.50
2018-04-01T11:07:26.163Z,11.70
2018-04-01T11:09:53.953Z,11.80
2018-04-01T11:12:21.734Z,11.80
2018-04-01T11:14:49.509Z,11.90
2018-04-01T11:17:17.295Z,11.90
2018-04-01T11:19:45.150Z,11.90
2018-04-01T11:22:12.960Z,11.90
2018-04-01T11:24:40.500Z,11.90
2018-04-01T11:27:09.104Z,11.90
2018-04-01T11:29:36.889Z,11.90
2018-04-01T11:32:04.689Z,11.80
2018-04-01T11:34:32.468Z,11.70
2018-04-01T11:37:00.249Z,11.70
2018-04-01T11:39:28.800Z,11.60
2018-04-01T11:41:56.785Z,11.60
2018-04-01T11:44:24.561Z,11.50
2018-04-01T11:46:52.351Z,11.50
2018-04-01T11:49:20.104Z,11.50
2018-04-01T11:51:47.912Z,11.40
2018-04-01T11:54:15.697Z,11.30
2018-04-01T11:56:43.516Z,11.30
2018-04-01T11:59:11.518Z,11.30
2018-04-01T12:01:39.300Z,11.20
2018-04-01T12:04:07.107Z,11.10
2018-04-01T12:06:34.882Z,11.10
2018-04-01T12:09:03.573Z,11.10
2018-04-01T12:11:32.856Z,11.00
2018-04-01T12:14:01.423Z,11.00
2018-04-01T12:16:29.972Z,11.00
2018-04-01T12:18:58.139Z,11.00
2018-04-01T12:21:25.962Z,11.00
2018-04-01T12:23:54.616Z,11.00
2018-04-01T12:26:23.641Z,10.90
2018-04-01T12:28:52.273Z,10.80
2018-04-01T12:31:20.044Z,10.80
2018-04-01T12:33:48.595Z,10.60
2018-04-01T12:36:16.372Z,10.50
2018-04-01T12:38:44.160Z,10.40
2018-04-01T12:41:12.861Z,10.10
2018-04-01T12:43:40.617Z,10.20
2018-04-01T12:46:08.410Z,10.00
2018-04-01T12:48:36.186Z,9.90
2018-04-01T12:51:03.972Z,9.80
2018-04-01T12:53:31.745Z,9.70
2018-04-01T12:55:59.526Z,9.60
2018-04-01T12:58:27.290Z,9.60
2018-04-01T13:00:55.072Z,9.40
2018-04-01T13:03:22.859Z,9.40
2018-04-01T13:05:50.634Z,9.30
2018-04-01T13:08:18.416Z,9.20
2018-04-01T13:10:46.254Z,9.20
2018-04-01T13:13:14.023Z,9.10
2018-04-01T13:15:41.820Z,9.10
2018-04-01T13:18:09.588Z,9.00
2018-04-01T13:20:37.352Z,9.00
2018-04-01T13:23:05.240Z,9.00
2018-04-01T13:25:33.016Z,9.00
2018-04-01T13:28:00.769Z,9.00
2018-04-01T13:30:28.552Z,9.00
2018-04-01T13:32:57.269Z,9.00
2018-04-01T13:35:25.053Z,9.00
2018-04-01T13:37:52.808Z,9.00
2018-04-01T13:40:20.595Z,9.00
2018-04-01T13:42:48.354Z,9.10
2018-04-01T13:45:16.148Z,9.10
2018-04-01T13:47:44.052Z,9.20
2018-04-01T13:50:11.596Z,9.30
2018-04-01T13:52:39.370Z,9.40
2018-04-01T13:55:07.149Z,9.50
2018-04-01T13:57:34.925Z,9.60
2018-04-01T14:00:02.694Z,9.70
2018-04-01T14:02:30.477Z,9.80
2018-04-01T14:04:58.279Z,9.90
2018-04-01T14:07:26.113Z,9.90
2018-04-01T14:09:54.662Z,9.90
2018-04-01T14:12:22.434Z,9.90
2018-04-01T14:14:50.206Z,9.90
2018-04-01T14:17:18.008Z,9.90
2018-04-01T14:19:47.325Z,9.90
2018-04-01T14:22:15.096Z,9.90
2018-04-01T14:24:42.896Z,9.90
2018-04-01T14:27:11.446Z,9.90
2018-04-01T14:29:39.208Z,9.90
2018-04-01T14:32:06.985Z,9.90
2018-04-01T14:34:34.769Z,9.90
2018-04-01T14:37:02.542Z,9.90
2018-04-01T14:39:30.324Z,9.80
2018-04-01T14:41:58.139Z,9.90
2018-04-01T14:44:27.455Z,9.90
2018-04-01T14:46:55.229Z,9.90
2018-04-01T14:49:23.849Z,9.90
2018-04-01T14:51:51.607Z,9.90
2018-04-01T14:54:20.156Z,10.00
2018-04-01T14:56:48.730Z,10.00
2018-04-01T14:59:16.517Z,10.00
2018-04-01T15:01:44.317Z,10.10
2018-04-01T15:04:12.415Z,10.10
2018-04-01T15:06:40.198Z,10.20
2018-04-01T15:09:08.004Z,10.20
2018-04-01T15:11:36.548Z,10.20
2018-04-01T15:14:04.364Z,10.20
2018-04-01T15:16:33.057Z,10.20
2018-04-01T15:19:00.807Z,10.20
2018-04-01T15:21:28.600Z,10.20
2018-04-01T15:23:56.373Z,10.20
2018-04-01T15:26:24.150Z,10.20
2018-04-01T15:28:53.652Z,10.20
2018-04-01T15:31:21.771Z,10.10
2018-04-01T15:33:50.095Z,10.10
2018-04-01T15:36:18.075Z,10.10
2018-04-01T15:38:46.790Z,10.20
2018-04-01T15:41:14.576Z,10.20
2018-04-01T15:43:42.345Z,10.20
2018-04-01T15:46:10.483Z,10.20
2018-04-01T15:48:39.229Z,10.30
2018-04-01T15:51:06.994Z,10.30
2018-04-01T15:53:34.773Z,10.40
2018-04-01T15:56:02.553Z,10.40
2018-04-01T15:58:30.348Z,10.50
2018-04-01T16:00:58.133Z,10.50
2018-04-01T16:03:27.001Z,10.60
2018-04-01T16:05:54.775Z,10.60
2018-04-01T16:08:22.576Z,10.60
2018-04-01T16:10:50.364Z,10.60
2018-04-01T16:13:18.129Z,10.60
2018-04-01T16:15:46.075Z,10.60
2018-04-01T16:18:13.857Z,10.60
2018-04-01T16:20:41.633Z,10.60
2018-04-01T16:23:09.415Z,10.50
2018-04-01T16:25:37.187Z,10.50
2018-04-01T16:28:04.956Z,10.50
2018-04-01T16:30:32.504Z,10.50
2018-04-01T16:33:00.283Z,10.50
2018-04-01T16:35:28.096Z,10.50
2018-04-01T16:37:55.878Z,10.50
2018-04-01T16:40:23.667Z,10.60
2018-04-01T16:42:51.437Z,10.50
2018-04-01T16:45:19.225Z,10.60
2018-04-01T16:47:46.989Z,10.60
2018-04-01T16:50:14.765Z,10.60
2018-04-01T16:52:42.321Z,10.60
2018-04-01T16:55:10.098Z,10.70
2018-04-01T16:57:37.897Z,10.60
2018-04-01T17:00:06.722Z,10.60
2018-04-01T17:02:34.544Z,10.60
2018-04-01T17:05:03.061Z,10.60
2018-04-01T17:07:30.853Z,10.50
2018-04-01T17:09:58.612Z,10.60
2018-04-01T17:12:26.445Z,10.50
2018-04-01T17:14:55.364Z,10.50
2018-04-01T17:17:23.971Z,10.40
2018-04-01T17:19:52.016Z,10.40
2018-04-01T17:22:19.806Z,10.40
2018-04-01T17:24:47.788Z,10.40
2018-04-01T17:27:15.793Z,10.40
2018-04-01T17:29:44.690Z,10.30
2018-04-01T17:32:13.290Z,10.30
2018-04-01T17:34:41.172Z,10.30
2018-04-01T17:37:09.077Z,10.20
2018-04-01T17:39:36.839Z,10.20
2018-04-01T17:42:04.612Z,10.20
2018-04-01T17:44:33.252Z,10.20
2018-04-01T17:47:00.821Z,10.20
2018-04-01T17:49:28.613Z,10.20
2018-04-01T17:51:57.931Z,10.10
2018-04-01T17:54:27.222Z,10.00
2018-04-01T17:56:54.770Z,10.00
2018-04-01T17:59:23.748Z,9.90
2018-04-01T18:01:52.818Z,9.90
2018-04-01T18:04:20.765Z,9.80
2018-04-01T18:06:48.910Z,9.80
2018-04-01T18:09:17.443Z,9.60
2018-04-01T18:11:45.332Z,9.60
2018-04-01T18:14:13.089Z,9.60
2018-04-01T18:16:40.877Z,9.50
2018-04-01T18:19:08.464Z,9.40
2018-04-01T18:21:36.262Z,9.40
2018-04-01T18:24:03.796Z,9.40
2018-04-01T18:26:31.566Z,9.40
2018-04-01T18:28:59.363Z,9.30
2018-04-01T18:31:27.127Z,9.30
2018-04-01T18:33:54.890Z,9.30
2018-04-01T18:36:22.844Z,9.30
2018-04-01T18:38:51.414Z,9.30
2018-04-01T18:41:19.183Z,9.30
2018-04-01T18:43:47.096Z,9.30
2018-04-01T18:46:15.624Z,9.30
2018-04-01T18:48:43.392Z,9.30
2018-04-01T18:51:11.493Z,9.30
2018-04-01T18:53:39.266Z,9.30
2018-04-01T18:56:07.034Z,9.30
2018-04-01T18:58:34.584Z,9.30
2018-04-01T19:01:02.405Z,9.30
2018-04-01T19:03:31.080Z,9.30
2018-04-01T19:05:58.872Z,9.30
2018-04-01T19:08:26.760Z,9.30
2018-04-01T19:10:54.566Z,9.30
2018-04-01T19:13:22.528Z,9.40
2018-04-01T19:15:50.342Z,9.40
2018-04-01T19:18:20.022Z,9.40
2018-04-01T19:20:49.480Z,9.30
2018-04-01T19:23:18.691Z,9.40
2018-04-01T19:25:48.140Z,9.40
2018-04-01T19:28:17.617Z,9.40
2018-04-01T19:30:47.824Z,9.40
2018-04-01T19:33:17.284Z,9.40
2018-04-01T19:35:46.731Z,9.40
2018-04-01T19:38:16.182Z,9.40
2018-04-01T19:40:46.338Z,9.30
2018-04-01T19:43:16.311Z,9.40
2018-04-01T19:45:45.809Z,9.30
2018-04-01T19:48:24.818Z,9.30
2018-04-01T19:50:56.301Z,9.30
2018-04-01T19:53:26.074Z,9.30
2018-04-01T19:55:55.669Z,9.20
2018-04-01T19:58:25.361Z,9.20
2018-04-01T20:00:54.827Z,9.20
2018-04-01T20:03:25.039Z,9.10
2018-04-01T20:05:54.493Z,9.10
2018-04-01T20:08:24.016Z,9.00
2018-04-01T20:10:53.966Z,8.90
2018-04-01T20:13:24.608Z,8.90
2018-04-01T20:15:53.824Z,8.90
2018-04-01T20:18:23.806Z,8.80
2018-04-01T20:20:53.386Z,8.80
2018-04-01T20:23:23.534Z,8.70
2018-04-01T20:25:53.065Z,8.70
2018-04-01T20:28:22.798Z,8.60
2018-04-01T20:30:52.456Z,8.50
2018-04-01T20:33:22.237Z,8.50
2018-04-01T20:35:51.825Z,8.40
2018-04-01T20:38:21.278Z,8.30
2018-04-01T20:40:50.738Z,8.30
2018-04-01T20:43:19.948Z,8.20
2018-04-01T20:45:49.155Z,8.10
2018-04-01T20:48:18.765Z,8.00
2018-04-01T20:50:48.983Z,7.90
2018-04-01T20:53:18.454Z,7.90
2018-04-01T20:55:47.884Z,7.80
2018-04-01T20:58:17.480Z,7.80
2018-04-01T21:00:46.945Z,7.70
2018-04-01T21:03:16.388Z,7.60
2018-04-01T21:05:45.874Z,7.60
2018-04-01T21:08:16.482Z,7.40
2018-04-01T21:10:46.014Z,7.40
2018-04-01T21:13:15.448Z,7.40
2018-04-01T21:15:45.565Z,7.30
2018-04-01T21:18:14.712Z,7.30
2018-04-01T21:20:44.951Z,7.20
2018-04-01T21:23:15.331Z,7.10
2018-04-01T21:25:45.320Z,7.10
2018-04-01T21:28:15.528Z,7.00
2018-04-01T21:30:44.993Z,7.00
2018-04-01T21:33:14.476Z,7.00
2018-04-01T21:35:44.642Z,6.90
2018-04-01T21:38:15.046Z,6.80
2018-04-01T21:40:44.229Z,6.80
2018-04-01T21:43:13.683Z,6.80
2018-04-01T21:45:43.980Z,6.70
2018-04-01T21:48:13.692Z,6.70
2018-04-01T21:50:43.246Z,6.70
2018-04-01T21:53:12.877Z,6.70
2018-04-01T21:55:42.053Z,6.70
2018-04-01T21:58:11.490Z,6.60
2018-04-01T22:00:40.960Z,6.70
2018-04-01T22:03:10.292Z,6.60
2018-04-01T22:05:39.748Z,6.60
2018-04-01T22:08:09.982Z,6.50
2018-04-01T22:10:40.191Z,6.60
2018-04-01T22:13:09.637Z,6.50
2018-04-01T22:15:39.849Z,6.50
2018-04-01T22:18:09.020Z,6.50
2018-04-01T22:20:38.468Z,6.50
2018-04-01T22:23:13.130Z,6.50
2018-04-01T22:25:43.217Z,6.40
2018-04-01T22:28:12.644Z,6.40
2018-04-01T22:30:42.123Z,6.40
2018-04-01T22:33:11.565Z,6.40
2018-04-01T22:35:41.028Z,6.40
2018-04-01T22:38:11.264Z,6.30
2018-04-01T22:40:41.494Z,6.20
2018-04-01T22:43:10.945Z,6.20
2018-04-01T22:45:40.397Z,6.20
2018-04-01T22:48:09.648Z,6.20
2018-04-01T22:50:38.956Z,6.10
2018-04-01T22:53:09.172Z,6.00
2018-04-01T22:55:38.612Z,6.00
2018-04-01T22:58:08.424Z,5.90
2018-04-01T23:00:38.314Z,5.80
2018-04-01T23:03:07.757Z,5.80
2018-04-01T23:05:36.935Z,5.80
2018-04-01T23:08:06.593Z,5.70
2018-04-01T23:10:36.043Z,5.70
2018-04-01T23:13:05.504Z,5.70
2018-04-01T23:15:34.944Z,5.70
2018-04-01T23:18:05.295Z,5.60
2018-04-01T23:20:34.437Z,5.50
2018-04-01T23:23:03.801Z,5.50
2018-04-01T23:25:34.018Z,5.40
2018-04-01T23:28:03.729Z,5.40
2018-04-01T23:30:33.222Z,5.40
2018-04-01T23:33:03.700Z,5.30
2018-04-01T23:35:33.146Z,5.20
2018-04-01T23:38:03.800Z,5.20
2018-04-01T23:40:33.257Z,5.10
2018-04-01T23:43:02.701Z,5.10
2018-04-01T23:45:32.202Z,5.10
2018-04-01T23:48:01.604Z,5.00
2018-04-01T23:50:30.795Z,5.00
2018-04-01T23:53:00.261Z,5.00
2018-04-01T23:55:29.700Z,4.90
2018-04-01T23:57:59.150Z,4.90
